Time;durP1;ratioP1;P1;durP2;ratioP2;P2;SDS_P1;SDS_P2;PMS_P1;PMS_P2;Temp;Humidity;BMP_temperature;BMP_pressure;BME280_temperature;BME280_humidity;BME280_pressure;Samples;Min_cycle;Max_cycle;Signal;HPM_P1;HPM_P2
2020/12/10 00:02:30;;;;;;;41.47;26.20;;;4.30;93.90;;;;;;5092496;28;20024;-71
2020/12/10 00:04:56;;;;;;;41.05;24.95;;;4.40;94.10;;;;;;5093298;28;20074;-72
2020/12/10 00:07:23;;;;;;;39.28;25.25;;;4.30;94.00;;;;;;5093705;28;20024;-71
2020/12/10 00:09:54;;;;;;;39.83;23.92;;;4.20;94.10;;;;;;5093426;28;20020;-71
2020/12/10 00:12:20;;;;;;;41.83;25.67;;;4.20;94.30;;;;;;5093949;28;20395;-71
2020/12/10 00:14:46;;;;;;;40.35;25.27;;;4.20;94.30;;;;;;5093730;28;20062;-71
2020/12/10 00:17:12;;;;;;;44.45;27.90;;;4.20;94.50;;;;;;5093088;28;20031;-71
2020/12/10 00:19:41;;;;;;;46.70;28.20;;;4.20;94.90;;;;;;5093375;28;20422;-72
2020/12/10 00:22:07;;;;;;;48.35;28.75;;;4.20;94.80;;;;;;5093619;28;20024;-71
2020/12/10 00:24:33;;;;;;;46.03;28.38;;;4.20;94.60;;;;;;5092081;28;20024;-72
2020/12/10 00:26:59;;;;;;;44.75;27.48;;;4.20;95.00;;;;;;5093627;28;20535;-71
2020/12/10 00:29:25;;;;;;;40.55;25.60;;;4.20;94.80;;;;;;5092173;28;20056;-72
2020/12/10 00:31:50;;;;;;;41.15;24.90;;;4.30;94.70;;;;;;5092944;28;20118;-71
2020/12/10 00:34:16;;;;;;;41.50;24.98;;;4.30;94.90;;;;;;5093767;28;20057;-71
2020/12/10 00:36:42;;;;;;;43.03;26.95;;;4.30;94.60;;;;;;5093409;28;20055;-71
2020/12/10 00:39:08;;;;;;;43.53;25.92;;;4.20;94.90;;;;;;5092935;28;20028;-72
2020/12/10 00:41:33;;;;;;;62.38;36.95;;;4.30;95.30;;;;;;5093460;28;20054;-71
2020/12/10 00:43:59;;;;;;;61.85;34.25;;;4.30;95.00;;;;;;5092424;28;20050;-71
2020/12/10 00:46:25;;;;;;;49.83;31.63;;;4.40;94.50;;;;;;5095378;28;20028;-71
2020/12/10 00:48:51;;;;;;;51.00;30.70;;;4.40;94.50;;;;;;5097461;28;20024;-72
2020/12/10 00:51:16;;;;;;;74.10;40.60;;;4.40;94.60;;;;;;5097164;28;20146;-72
2020/12/10 00:53:42;;;;;;;120.78;55.15;;;4.50;94.50;;;;;;5097034;28;20057;-71
2020/12/10 00:56:08;;;;;;;83.05;42.72;;;4.50;94.50;;;;;;5096784;28;20110;-72
2020/12/10 00:58:33;;;;;;;62.58;34.78;;;4.50;94.20;;;;;;5096319;28;20515;-72
2020/12/10 01:00:59;;;;;;;61.67;38.53;;;4.40;94.40;;;;;;5095341;28;20023;-72
2020/12/10 01:03:25;;;;;;;118.90;66.78;;;4.40;94.60;;;;;;5095586;28;20024;-72
2020/12/10 01:05:51;;;;;;;58.90;35.50;;;4.40;94.80;;;;;;5095579;28;20474;-72
2020/12/10 01:08:16;;;;;;;47.08;29.95;;;4.40;94.80;;;;;;5096842;28;20519;-72
2020/12/10 01:10:42;;;;;;;47.40;27.08;;;4.40;94.80;;;;;;5096103;28;20031;-72
2020/12/10 01:13:08;;;;;;;48.88;29.13;;;4.50;94.80;;;;;;5095065;28;20032;-72
2020/12/10 01:15:34;;;;;;;80.00;38.90;;;4.40;94.80;;;;;;5096431;28;20081;-72
2020/12/10 01:18:00;;;;;;;58.42;35.65;;;4.50;94.80;;;;;;5096963;28;20094;-72
2020/12/10 01:20:26;;;;;;;56.30;39.72;;;4.50;94.80;;;;;;5095005;28;20111;-72
2020/12/10 01:22:51;;;;;;;51.60;32.13;;;4.60;94.70;;;;;;5096622;28;20066;-72
2020/12/10 01:25:17;;;;;;;46.75;29.00;;;4.60;94.70;;;;;;5095208;28;20028;-71
2020/12/10 01:27:43;;;;;;;72.35;35.83;;;4.60;94.80;;;;;;5096165;28;20023;-72
2020/12/10 01:30:09;;;;;;;58.83;34.30;;;4.50;94.90;;;;;;5094952;28;20376;-72
2020/12/10 01:32:34;;;;;;;84.93;43.47;;;4.50;94.70;;;;;;5096344;28;20035;-72
2020/12/10 01:35:00;;;;;;;61.22;36.10;;;4.50;94.70;;;;;;5095945;28;20062;-71
2020/12/10 01:37:26;;;;;;;40.72;26.88;;;4.50;94.70;;;;;;5095213;28;20527;-72
2020/12/10 01:39:52;;;;;;;27.63;19.85;;;4.60;94.80;;;;;;5096580;28;20055;-72
2020/12/10 01:42:18;;;;;;;27.05;17.45;;;4.60;94.60;;;;;;5094581;28;20084;-72
2020/12/10 01:44:44;;;;;;;27.58;18.23;;;4.60;94.60;;;;;;5095220;28;20020;-72
2020/12/10 01:47:09;;;;;;;25.45;17.20;;;4.70;94.20;;;;;;5094519;28;20438;-72
2020/12/10 01:49:38;;;;;;;30.40;20.48;;;4.80;94.00;;;;;;5095814;28;20024;-72
2020/12/10 01:52:05;;;;;;;65.25;41.15;;;4.80;94.10;;;;;;5095967;28;20085;-71
2020/12/10 01:54:32;;;;;;;57.25;35.67;;;4.70;94.40;;;;;;5095641;28;20058;-71
2020/12/10 01:56:58;;;;;;;33.78;22.10;;;4.80;94.30;;;;;;5094052;28;20070;-72
2020/12/10 01:59:24;;;;;;;23.08;16.25;;;4.80;94.30;;;;;;5095291;28;20464;-71
2020/12/10 02:01:50;;;;;;;23.20;16.05;;;4.80;94.30;;;;;;5095481;28;20063;-72
2020/12/10 02:04:33;;;;;;;25.08;17.52;;;4.80;94.00;;;;;;5095484;28;20074;-71
2020/12/10 02:07:00;;;;;;;24.00;16.70;;;4.90;93.80;;;;;;5095736;28;20020;-71
2020/12/10 02:09:27;;;;;;;23.40;16.98;;;4.90;93.90;;;;;;5093866;28;20024;-72
2020/12/10 02:11:53;;;;;;;25.40;16.80;;;4.80;93.70;;;;;;5095584;28;20483;-72
2020/12/10 02:14:20;;;;;;;23.35;16.85;;;4.90;93.90;;;;;;5095849;28;20054;-72
2020/12/10 02:16:51;;;;;;;23.38;17.63;;;4.80;93.90;;;;;;5095284;28;20111;-72
2020/12/10 02:19:17;;;;;;;27.05;19.98;;;4.90;93.90;;;;;;5095519;28;20024;-72
2020/12/10 02:21:43;;;;;;;39.65;24.40;;;4.90;94.10;;;;;;5094187;28;20510;-72
2020/12/10 02:24:08;;;;;;;26.70;18.38;;;4.90;94.20;;;;;;5094142;28;20028;-72
2020/12/10 02:26:34;;;;;;;24.70;17.00;;;4.90;94.20;;;;;;5095090;28;20021;-72
2020/12/10 02:29:02;;;;;;;27.65;17.65;;;4.90;94.10;;;;;;5095325;28;20025;-72
2020/12/10 02:31:29;;;;;;;28.20;18.48;;;4.80;94.10;;;;;;5093215;28;20093;-72
2020/12/10 02:33:59;;;;;;;26.17;17.95;;;4.80;94.20;;;;;;5095146;28;20122;-72
2020/12/10 02:36:26;;;;;;;29.45;20.05;;;4.80;94.30;;;;;;5093906;28;20609;-72
2020/12/10 02:38:52;;;;;;;29.58;19.52;;;4.80;94.50;;;;;;5095117;28;20028;-72
2020/12/10 02:41:18;;;;;;;30.00;19.42;;;4.70;94.60;;;;;;5093759;28;20032;-72
2020/12/10 02:43:44;;;;;;;31.20;20.38;;;4.80;94.30;;;;;;5093415;28;20041;-72
2020/12/10 02:46:10;;;;;;;33.35;21.65;;;4.70;94.50;;;;;;5094172;28;20035;-72
2020/12/10 02:48:36;;;;;;;36.65;23.65;;;4.70;94.70;;;;;;5094924;28;20380;-72
2020/12/10 02:51:02;;;;;;;35.13;21.90;;;4.70;94.70;;;;;;5094243;28;20031;-72
2020/12/10 02:53:29;;;;;;;49.00;30.52;;;4.70;94.70;;;;;;5093472;28;20035;-72
2020/12/10 02:55:55;;;;;;;36.78;25.20;;;4.60;94.90;;;;;;5094845;28;20454;-72
2020/12/10 02:58:22;;;;;;;38.58;26.75;;;4.60;95.00;;;;;;5094570;28;20028;-72
2020/12/10 03:00:48;;;;;;;35.88;24.13;;;4.60;94.80;;;;;;5094729;28;20020;-72
2020/12/10 03:03:15;;;;;;;35.17;23.83;;;4.60;94.80;;;;;;5093362;28;20110;-72
2020/12/10 03:05:40;;;;;;;35.50;21.55;;;4.70;94.90;;;;;;5094399;28;20016;-72
2020/12/10 03:08:06;;;;;;;39.70;25.02;;;4.70;94.70;;;;;;5093257;28;20020;-72
2020/12/10 03:10:32;;;;;;;44.63;25.23;;;4.60;94.90;;;;;;5093761;28;20411;-72
2020/12/10 03:12:58;;;;;;;44.30;25.33;;;4.60;95.00;;;;;;5094029;28;20383;-72
2020/12/10 03:15:24;;;;;;;38.65;24.27;;;4.60;95.10;;;;;;5094187;28;20099;-72
2020/12/10 03:17:50;;;;;;;42.15;25.45;;;4.70;94.80;;;;;;5094128;28;20024;-72
2020/12/10 03:20:17;;;;;;;42.97;25.88;;;4.70;94.70;;;;;;5094168;28;20070;-72
2020/12/10 03:22:43;;;;;;;52.63;30.75;;;4.80;94.50;;;;;;5093016;28;20112;-72
2020/12/10 03:25:09;;;;;;;46.75;28.83;;;4.80;94.50;;;;;;5093021;28;20119;-72
2020/12/10 03:27:34;;;;;;;51.53;33.35;;;4.80;94.40;;;;;;5094006;28;20063;-72
2020/12/10 03:30:00;;;;;;;45.75;29.00;;;4.80;94.40;;;;;;5094145;28;20051;-72
2020/12/10 03:32:26;;;;;;;49.40;29.55;;;4.70;94.40;;;;;;5094115;28;20040;-72
2020/12/10 03:34:53;;;;;;;50.92;31.67;;;4.80;94.40;;;;;;5093429;28;20564;-72
2020/12/10 03:37:19;;;;;;;45.60;29.73;;;4.70;94.40;;;;;;5092845;28;20024;-72
2020/12/10 03:39:44;;;;;;;38.55;26.48;;;4.60;94.60;;;;;;5093814;28;20150;-72
2020/12/10 03:42:10;;;;;;;40.95;26.52;;;4.70;94.30;;;;;;5093048;28;20036;-72
2020/12/10 03:44:36;;;;;;;37.40;24.85;;;4.70;94.30;;;;;;5092793;28;20024;-72
2020/12/10 03:47:02;;;;;;;36.95;24.30;;;4.80;94.30;;;;;;5094169;28;20103;-72
2020/12/10 03:49:28;;;;;;;36.25;23.83;;;4.80;94.10;;;;;;5094032;28;20028;-72
2020/12/10 03:51:54;;;;;;;38.30;25.38;;;4.80;94.20;;;;;;5093878;28;20464;-72
2020/12/10 03:54:19;;;;;;;41.97;27.45;;;4.80;94.20;;;;;;5092286;28;20028;-72
2020/12/10 03:56:45;;;;;;;33.83;24.15;;;4.80;94.40;;;;;;5093909;28;20020;-72
2020/12/10 03:59:12;;;;;;;38.13;25.75;;;4.80;94.20;;;;;;5092624;28;20032;-72
2020/12/10 04:01:37;;;;;;;35.20;24.48;;;4.80;94.30;;;;;;5093881;28;20032;-72
2020/12/10 04:04:04;;;;;;;117.60;72.45;;;4.70;94.50;;;;;;5092513;28;20066;-72
2020/12/10 04:06:30;;;;;;;87.97;47.22;;;4.60;94.80;;;;;;5092231;28;20073;-72
2020/12/10 04:08:56;;;;;;;260.90;108.93;;;4.50;95.10;;;;;;5093257;28;20063;-72
2020/12/10 04:11:23;;;;;;;189.88;80.78;;;4.50;95.10;;;;;;5094065;28;20028;-72
2020/12/10 04:13:48;;;;;;;74.05;38.63;;;4.50;95.20;;;;;;5093421;28;20415;-72
2020/12/10 04:16:14;;;;;;;38.50;24.38;;;4.60;95.00;;;;;;5093186;28;20025;-72
2020/12/10 04:18:42;;;;;;;36.28;25.33;;;4.60;94.90;;;;;;5093713;28;20020;-72
2020/12/10 04:21:09;;;;;;;37.55;25.05;;;4.60;94.70;;;;;;5094061;28;20410;-72
2020/12/10 04:23:35;;;;;;;41.63;26.63;;;4.60;94.60;;;;;;5096200;28;20039;-72
2020/12/10 04:26:02;;;;;;;42.63;29.33;;;4.70;94.80;;;;;;5096402;28;20055;-72
2020/12/10 04:28:28;;;;;;;50.33;33.28;;;4.60;94.70;;;;;;5096340;28;20501;-72
2020/12/10 04:30:54;;;;;;;59.28;36.03;;;4.70;94.90;;;;;;5097325;28;20080;-72
2020/12/10 04:33:19;;;;;;;32.53;22.52;;;4.70;94.70;;;;;;5097382;28;20074;-72
2020/12/10 04:35:45;;;;;;;29.65;20.25;;;4.70;94.50;;;;;;5095910;28;20448;-72
2020/12/10 04:38:11;;;;;;;34.80;23.27;;;4.80;94.40;;;;;;5096225;28;20028;-72
2020/12/10 04:40:37;;;;;;;33.90;23.55;;;4.80;94.20;;;;;;5096142;28;20544;-72
2020/12/10 04:43:06;;;;;;;31.80;22.25;;;4.80;94.20;;;;;;5097092;28;20028;-72
2020/12/10 04:45:32;;;;;;;62.80;37.65;;;4.80;94.10;;;;;;5096322;28;20422;-72
2020/12/10 04:47:59;;;;;;;43.45;29.13;;;4.80;94.10;;;;;;5096012;28;20032;-72
2020/12/10 04:50:27;;;;;;;36.00;24.85;;;4.90;94.00;;;;;;5096644;28;20468;-72
2020/12/10 04:52:53;;;;;;;35.17;23.90;;;4.80;94.00;;;;;;5097246;28;20032;-72
2020/12/10 04:55:23;;;;;;;54.65;37.08;;;4.80;94.00;;;;;;5097148;28;20407;-72
2020/12/10 04:57:52;;;;;;;46.03;30.67;;;4.80;94.00;;;;;;5097286;28;20525;-72
2020/12/10 05:00:19;;;;;;;41.53;30.20;;;4.80;94.00;;;;;;5097344;28;20027;-72
2020/12/10 05:02:45;;;;;;;50.83;35.58;;;4.80;94.10;;;;;;5095660;28;20089;-72
2020/12/10 05:05:29;;;;;;;51.00;34.75;;;4.80;94.10;;;;;;5096653;28;20024;-72
2020/12/10 05:07:57;;;;;;;52.28;33.63;;;4.70;94.20;;;;;;5096886;28;20038;-72
2020/12/10 05:10:23;;;;;;;47.65;32.67;;;4.70;94.20;;;;;;5096796;28;20511;-72
2020/12/10 05:12:49;;;;;;;46.22;31.58;;;4.70;94.20;;;;;;5094860;28;20123;-72
2020/12/10 05:15:34;;;;;;;43.28;30.77;;;4.70;94.20;;;;;;5095596;28;20051;-72
2020/12/10 05:18:08;;;;;;;;;;;4.70;94.40;;;;;;5096622;28;20417;-72
2020/12/10 05:20:43;;;;;;;54.63;36.83;;;4.70;94.30;;;;;;5096956;28;19911;-72
2020/12/10 05:23:10;;;;;;;71.20;43.33;;;4.60;94.40;;;;;;5095302;28;20032;-72
2020/12/10 05:25:46;;;;;;;51.03;34.20;;;4.60;94.60;;;;;;5094920;28;20020;-72
2020/12/10 05:28:12;;;;;;;49.90;32.75;;;4.60;94.60;;;;;;5095177;28;20031;-72
2020/12/10 05:30:38;;;;;;;51.10;35.97;;;4.60;94.70;;;;;;5094772;28;20527;-72
2020/12/10 05:33:12;;;;;;;77.95;46.53;;;4.60;94.60;;;;;;5095277;28;20032;-72
2020/12/10 05:35:38;;;;;;;120.70;68.13;;;4.60;94.20;;;;;;5095068;28;20032;-72
2020/12/10 05:38:12;;;;;;;123.32;71.95;;;4.60;93.90;;;;;;5095545;28;20028;-72
2020/12/10 05:40:40;;;;;;;91.07;53.47;;;4.60;94.30;;;;;;5095714;28;20085;-72
2020/12/10 05:43:07;;;;;;;141.50;71.70;;;4.60;94.20;;;;;;5096508;28;20121;-71
2020/12/10 05:45:39;;;;;;;103.85;57.20;;;4.60;94.20;;;;;;5095940;28;20024;-72
2020/12/10 05:48:05;;;;;;;72.57;43.75;;;4.60;94.10;;;;;;5096337;28;20054;-72
2020/12/10 05:50:32;;;;;;;61.75;39.45;;;4.60;94.00;;;;;;5094806;28;20028;-72
2020/12/10 05:53:08;;;;;;;58.03;37.15;;;4.50;94.10;;;;;;5094392;28;20418;-71
2020/12/10 05:55:36;;;;;;;53.55;35.63;;;4.50;94.00;;;;;;5095675;28;20070;-72
2020/12/10 05:58:04;;;;;;;54.05;35.80;;;4.50;94.00;;;;;;5095701;28;20023;-72
2020/12/10 06:00:31;;;;;;;54.30;35.90;;;4.40;93.90;;;;;;5095671;28;20043;-72
2020/12/10 06:02:58;;;;;;;50.22;35.42;;;4.40;94.00;;;;;;5096120;28;20035;-72
2020/12/10 06:05:24;;;;;;;47.88;34.13;;;4.30;94.10;;;;;;5094527;28;20020;-72
2020/12/10 06:07:59;;;;;;;48.53;33.83;;;4.30;94.40;;;;;;5094154;28;20077;-72
2020/12/10 06:10:26;;;;;;;51.08;34.08;;;4.30;94.20;;;;;;5095683;28;20474;-72
2020/12/10 06:12:51;;;;;;;53.92;35.50;;;4.30;94.30;;;;;;5095556;28;20127;-72
2020/12/10 06:15:28;;;;;;;65.78;40.33;;;4.30;94.00;;;;;;5095060;28;20085;-72
2020/12/10 06:18:05;;;;;;;84.68;52.25;;;4.40;94.10;;;;;;5094551;28;20380;-72
2020/12/10 06:20:44;;;;;;;82.22;52.38;;;4.30;94.20;;;;;;5094243;28;20070;-72
2020/12/10 06:23:30;;;;;;;83.07;56.00;;;4.30;94.20;;;;;;5095465;28;20024;-72
2020/12/10 06:25:57;;;;;;;75.85;48.55;;;4.40;94.50;;;;;;5096083;28;20030;-73
2020/12/10 06:28:24;;;;;;;130.13;76.68;;;4.40;94.60;;;;;;5093228;28;20121;-73
2020/12/10 06:31:10;;;;;;;102.32;58.35;;;4.30;94.80;;;;;;5092199;28;20047;-72
2020/12/10 06:33:41;;;;;;;118.55;72.07;;;4.20;95.00;;;;;;5094388;28;20039;-72
2020/12/10 06:36:23;;;;;;;161.85;94.32;;;4.20;94.90;;;;;;5094876;28;20110;-72
2020/12/10 06:38:56;;;;;;;143.10;84.93;;;4.30;94.80;;;;;;5093387;28;20399;-72
2020/12/10 06:41:23;;;;;;;127.18;80.45;;;4.30;94.80;;;;;;5092411;28;20144;-72
2020/12/10 06:43:49;;;;;;;123.40;81.90;;;4.40;94.70;;;;;;5093714;28;20035;-73
2020/12/10 06:46:15;;;;;;;141.73;92.38;;;4.50;94.80;;;;;;5093559;28;20107;-72
2020/12/10 06:48:46;;;;;;;136.57;91.28;;;4.50;94.90;;;;;;5094633;28;20028;-72
2020/12/10 06:51:19;;;;;;;218.25;130.55;;;4.50;94.90;;;;;;5093393;28;20028;-72
2020/12/10 06:54:00;;;;;;;283.48;172.88;;;4.60;94.80;;;;;;5093781;28;20067;-72
2020/12/10 06:56:26;;;;;;;167.02;106.25;;;4.60;94.70;;;;;;5094212;28;20107;-72
2020/12/10 06:58:55;;;;;;;234.98;146.15;;;4.60;94.40;;;;;;5094489;28;20031;-72
2020/12/10 07:01:23;;;;;;;221.98;138.30;;;4.60;94.60;;;;;;5093409;28;20573;-72
2020/12/10 07:03:52;;;;;;;226.70;140.25;;;4.60;94.90;;;;;;5094215;28;20028;-72
2020/12/10 07:06:19;;;;;;;224.82;139.73;;;4.70;94.70;;;;;;5094629;28;20024;-72
2020/12/10 07:09:18;;;;;;;253.40;162.18;;;4.60;94.90;;;;;;5093304;28;20028;-72
2020/12/10 07:11:45;;;;;;;259.55;168.10;;;4.70;94.90;;;;;;5081517;28;20036;-72
2020/12/10 07:14:27;;;;;;;251.70;164.70;;;4.70;94.90;;;;;;5093199;28;20119;-72
2020/12/10 07:16:56;;;;;;;226.07;146.00;;;4.70;95.10;;;;;;5093480;28;20529;-72
2020/12/10 07:19:23;;;;;;;337.00;215.35;;;4.80;94.90;;;;;;5093065;28;20035;-72
2020/12/10 07:21:49;;;;;;;316.10;199.27;;;4.80;94.70;;;;;;5094331;28;20024;-72
2020/12/10 07:24:15;;;;;;;288.40;185.15;;;4.90;94.60;;;;;;5094710;28;20082;-72
2020/12/10 07:26:41;;;;;;;214.85;137.50;;;4.90;94.70;;;;;;5092950;28;20357;-72
2020/12/10 07:29:08;;;;;;;187.52;126.18;;;5.00;94.60;;;;;;5094828;28;20032;-72
2020/12/10 07:31:34;;;;;;;172.23;119.45;;;5.00;94.30;;;;;;5092479;28;20044;-72
2020/12/10 07:34:00;;;;;;;215.02;132.55;;;5.00;94.30;;;;;;5094108;28;20426;-72
2020/12/10 07:36:31;;;;;;;212.50;132.15;;;5.10;94.10;;;;;;5094186;28;20024;-72
2020/12/10 07:38:58;;;;;;;257.23;156.00;;;5.10;94.10;;;;;;5092582;28;20028;-72
2020/12/10 07:41:23;;;;;;;331.52;207.23;;;5.20;94.00;;;;;;5094059;28;20024;-72
2020/12/10 07:43:53;;;;;;;241.02;150.00;;;5.20;94.20;;;;;;5094107;28;20091;-72
2020/12/10 07:46:33;;;;;;;197.93;120.30;;;5.20;94.40;;;;;;5092454;28;20166;-72
2020/12/10 07:48:59;;;;;;;152.25;93.78;;;5.20;94.20;;;;;;5094269;28;20020;-72
2020/12/10 07:51:24;;;;;;;126.70;80.82;;;5.20;94.20;;;;;;5094559;28;20024;-72
2020/12/10 07:53:59;;;;;;;118.25;71.57;;;5.20;94.10;;;;;;5092298;28;20036;-72
2020/12/10 07:56:26;;;;;;;;;;;5.20;93.90;;;;;;5092786;28;20027;-72
2020/12/10 07:59:16;;;;;;;126.97;78.72;;;5.20;93.90;;;;;;5094125;28;19911;-72
2020/12/10 08:01:54;;;;;;;239.43;132.80;;;5.20;93.90;;;;;;5094194;28;20077;-72
2020/12/10 08:04:22;;;;;;;132.57;80.25;;;5.20;94.10;;;;;;5092609;28;20020;-72
2020/12/10 08:06:52;;;;;;;103.15;62.60;;;5.30;94.30;;;;;;5093494;28;20059;-72
2020/12/10 08:09:19;;;;;;;126.20;75.60;;;5.40;94.00;;;;;;5093755;28;20020;-72
2020/12/10 08:11:53;;;;;;;125.68;77.47;;;5.40;94.10;;;;;;5093670;28;20031;-72
2020/12/10 08:14:26;;;;;;;176.60;104.45;;;5.40;94.20;;;;;;5092227;28;20024;-72
2020/12/10 08:16:52;;;;;;;101.22;60.42;;;5.50;94.20;;;;;;5092421;28;20028;-72
2020/12/10 08:19:19;;;;;;;141.15;85.93;;;5.50;93.90;;;;;;5092407;28;20118;-72
2020/12/10 08:21:46;;;;;;;125.18;76.85;;;5.60;93.40;;;;;;5092066;28;20035;-72
2020/12/10 08:24:15;;;;;;;98.72;62.05;;;5.60;93.50;;;;;;5092326;28;20377;-72
2020/12/10 08:26:42;;;;;;;90.32;60.00;;;5.60;93.10;;;;;;5092036;28;20448;-72
2020/12/10 08:29:14;;;;;;;104.75;69.00;;;5.70;93.20;;;;;;5092323;28;20032;-71
2020/12/10 08:31:40;;;;;;;112.53;68.60;;;5.70;93.40;;;;;;5092475;28;20063;-72
2020/12/10 08:34:16;;;;;;;93.38;60.05;;;5.80;93.10;;;;;;5091918;28;20028;-72
2020/12/10 08:36:42;;;;;;;81.28;54.63;;;5.80;93.10;;;;;;5093609;28;20050;-72
2020/12/10 08:39:07;;;;;;;83.13;50.58;;;5.80;92.90;;;;;;5092310;28;20456;-72
2020/12/10 08:41:37;;;;;;;76.00;48.45;;;5.90;93.10;;;;;;5093074;28;20502;-72
2020/12/10 08:44:07;;;;;;;82.72;51.42;;;5.90;92.70;;;;;;5092113;28;20053;-72
2020/12/10 08:46:36;;;;;;;74.40;49.90;;;6.00;93.20;;;;;;5093464;28;20036;-72
2020/12/10 08:49:21;;;;;;;61.10;38.60;;;6.00;93.00;;;;;;5090965;28;20020;-72
2020/12/10 08:51:49;;;;;;;72.75;49.80;;;5.90;92.50;;;;;;5093086;28;20047;-72
2020/12/10 08:54:15;;;;;;;71.90;49.05;;;5.80;92.40;;;;;;5092592;28;20513;-72
2020/12/10 08:56:42;;;;;;;95.53;60.53;;;5.80;92.60;;;;;;5091744;28;20024;-71
2020/12/10 08:59:08;;;;;;;75.30;50.47;;;5.80;92.70;;;;;;5092961;28;20414;-72
2020/12/10 09:01:35;;;;;;;68.72;46.35;;;5.80;92.30;;;;;;5091819;28;20593;-72
2020/12/10 09:04:01;;;;;;;114.38;76.05;;;5.70;92.30;;;;;;5093455;28;20032;-72
2020/12/10 09:06:37;;;;;;;70.47;46.15;;;5.70;92.30;;;;;;5093258;28;20028;-72
2020/12/10 09:09:04;;;;;;;62.95;42.13;;;5.80;92.50;;;;;;5095177;28;20028;-72
2020/12/10 09:11:30;;;;;;;172.90;93.22;;;5.90;93.10;;;;;;5095552;28;20020;-72
2020/12/10 09:13:59;;;;;;;77.85;48.80;;;5.90;92.10;;;;;;5096423;28;20036;-72
2020/12/10 09:16:29;;;;;;;76.00;50.33;;;6.00;92.40;;;;;;5096543;28;20072;-72
2020/12/10 09:18:56;;;;;;;79.75;52.92;;;6.10;92.20;;;;;;5096789;28;20070;-72
2020/12/10 09:21:21;;;;;;;75.22;47.03;;;6.10;92.50;;;;;;5096079;28;20070;-72
2020/12/10 09:23:48;;;;;;;64.38;43.92;;;6.10;91.90;;;;;;5094926;28;20464;-72
2020/12/10 09:26:14;;;;;;;78.40;51.63;;;6.10;91.80;;;;;;5095250;28;20063;-72
2020/12/10 09:28:41;;;;;;;67.28;43.78;;;6.10;92.10;;;;;;5096448;28;20020;-72
2020/12/10 09:31:07;;;;;;;79.18;53.30;;;6.10;92.20;;;;;;5095958;28;20040;-72
2020/12/10 09:33:33;;;;;;;66.78;44.95;;;6.20;92.30;;;;;;5096287;28;20389;-72
2020/12/10 09:36:00;;;;;;;63.22;41.60;;;6.40;92.20;;;;;;5096353;28;20028;-72
2020/12/10 09:38:25;;;;;;;77.60;49.65;;;6.50;91.60;;;;;;5095994;28;20032;-72
2020/12/10 09:40:52;;;;;;;77.90;50.53;;;6.70;93.20;;;;;;5096296;28;20036;-72
2020/12/10 09:43:18;;;;;;;82.78;54.90;;;7.00;91.60;;;;;;5094879;28;20475;-71
2020/12/10 09:45:48;;;;;;;89.10;56.78;;;7.30;92.20;;;;;;5095605;28;20035;-72
2020/12/10 09:48:13;;;;;;;94.40;64.75;;;7.30;90.30;;;;;;5096359;28;20016;-72
2020/12/10 09:50:39;;;;;;;98.05;63.75;;;7.20;90.00;;;;;;5095428;28;20062;-72
2020/12/10 09:53:25;;;;;;;96.88;62.13;;;7.00;90.40;;;;;;5094682;28;20032;-72
2020/12/10 09:58:20;;;;;;;106.60;72.65;;;7.00;90.70;;;;;;5095584;28;20024;-72
2020/12/10 10:00:49;;;;;;;95.97;63.67;;;6.90;90.60;;;;;;5094580;28;20440;-72
2020/12/10 10:03:19;;;;;;;102.28;68.20;;;6.90;91.60;;;;;;5095738;28;20035;-72
2020/12/10 10:05:45;;;;;;;77.22;52.95;;;6.80;90.70;;;;;;5095402;28;20016;-72
2020/12/10 10:08:11;;;;;;;82.43;51.88;;;6.90;91.10;;;;;;5094844;28;20486;-72
2020/12/10 10:10:37;;;;;;;77.93;50.75;;;6.90;91.70;;;;;;5094621;28;20059;-72
2020/12/10 10:13:03;;;;;;;79.07;52.80;;;7.00;91.40;;;;;;5095345;28;20430;-72
2020/12/10 10:15:29;;;;;;;146.95;90.53;;;7.00;90.80;;;;;;5095279;28;20024;-72
2020/12/10 10:17:55;;;;;;;134.13;87.75;;;7.00;91.20;;;;;;5094135;28;20031;-72
2020/12/10 10:20:21;;;;;;;88.80;58.58;;;7.00;90.90;;;;;;5095168;28;20020;-72
2020/12/10 10:22:46;;;;;;;324.35;157.77;;;7.00;91.70;;;;;;5095127;28;20034;-72
2020/12/10 10:25:12;;;;;;;114.63;67.55;;;6.80;91.00;;;;;;5094141;28;20028;-72
2020/12/10 10:27:38;;;;;;;80.47;52.95;;;6.90;91.40;;;;;;5093843;28;20062;-72
2020/12/10 10:30:07;;;;;;;81.90;53.25;;;7.10;91.30;;;;;;5095169;28;20048;-72
2020/12/10 10:32:34;;;;;;;80.38;53.13;;;7.30;90.50;;;;;;5093396;28;20186;-72
2020/12/10 10:35:00;;;;;;;106.90;70.18;;;7.30;89.50;;;;;;5093919;28;20024;-72
2020/12/10 10:37:26;;;;;;;82.45;53.95;;;7.80;90.90;;;;;;5095466;28;20042;-72
2020/12/10 10:39:52;;;;;;;80.20;54.20;;;8.30;92.20;;;;;;5093603;28;20081;-72
2020/12/10 10:42:17;;;;;;;79.70;53.65;;;9.30;89.00;;;;;;5093746;28;20035;-72
2020/12/10 10:44:43;;;;;;;83.28;57.53;;;10.00;91.80;;;;;;5093457;28;20028;-72
2020/12/10 10:47:09;;;;;;;85.20;58.00;;;10.10;80.30;;;;;;5093489;28;20051;-72
2020/12/10 10:49:35;;;;;;;78.60;53.28;;;10.50;89.30;;;;;;5094430;28;20032;-72
2020/12/10 10:52:01;;;;;;;76.63;53.35;;;10.60;81.50;;;;;;5093738;28;20028;-72
2020/12/10 10:54:27;;;;;;;79.78;55.15;;;10.40;81.10;;;;;;5093278;28;20111;-72
2020/12/10 10:56:52;;;;;;;82.85;58.45;;;10.30;82.70;;;;;;5093515;28;20114;-72
2020/12/10 10:59:18;;;;;;;81.03;57.22;;;10.00;80.10;;;;;;5093513;28;20525;-72
2020/12/10 11:01:44;;;;;;;85.97;57.13;;;9.80;80.90;;;;;;5094171;28;20052;-72
2020/12/10 11:04:10;;;;;;;82.25;55.42;;;9.50;82.00;;;;;;5094398;28;20028;-71
2020/12/10 11:06:35;;;;;;;83.25;56.17;;;9.30;82.80;;;;;;5094486;28;20032;-72
2020/12/10 11:09:01;;;;;;;86.97;55.60;;;8.90;83.00;;;;;;5094382;28;20034;-72
2020/12/10 11:11:27;;;;;;;83.15;55.15;;;8.80;84.00;;;;;;5093233;28;20024;-72
2020/12/10 11:13:53;;;;;;;83.55;55.78;;;8.60;85.00;;;;;;5094474;28;20043;-72
2020/12/10 11:16:20;;;;;;;80.38;54.45;;;8.50;85.40;;;;;;5092842;28;20024;-71
2020/12/10 11:18:46;;;;;;;70.00;48.33;;;8.30;85.90;;;;;;5094030;28;20361;-72
2020/12/10 11:21:13;;;;;;;71.60;48.47;;;8.30;86.10;;;;;;5094506;28;20072;-72
2020/12/10 11:23:39;;;;;;;76.10;51.15;;;8.10;86.80;;;;;;5092688;28;20036;-71
2020/12/10 11:26:05;;;;;;;72.22;49.78;;;8.10;86.70;;;;;;5094341;28;20423;-71
2020/12/10 11:28:31;;;;;;;73.50;48.95;;;8.00;87.30;;;;;;5094241;28;20046;-71
2020/12/10 11:30:57;;;;;;;84.00;55.40;;;7.90;87.60;;;;;;5092985;28;20407;-70
2020/12/10 11:33:24;;;;;;;90.20;57.17;;;7.80;88.20;;;;;;5094145;28;20032;-71
2020/12/10 11:35:50;;;;;;;118.15;71.18;;;7.80;88.70;;;;;;5093959;28;20024;-71
2020/12/10 11:38:16;;;;;;;117.00;67.95;;;7.70;87.80;;;;;;5092811;28;20024;-71
2020/12/10 11:40:42;;;;;;;132.85;77.15;;;7.70;88.50;;;;;;5092736;28;20375;-71
2020/12/10 11:43:08;;;;;;;112.82;67.93;;;7.70;88.00;;;;;;5092434;28;20035;-71
2020/12/10 11:45:34;;;;;;;82.07;53.50;;;7.70;88.40;;;;;;5093977;28;20054;-71
2020/12/10 11:48:03;;;;;;;73.43;46.85;;;7.70;88.30;;;;;;5092695;28;20042;-71
2020/12/10 11:50:30;;;;;;;67.53;44.03;;;7.70;88.30;;;;;;5092311;28;20032;-72
2020/12/10 11:52:56;;;;;;;77.00;49.30;;;7.70;89.30;;;;;;5092656;28;20032;-71
2020/12/10 11:55:22;;;;;;;72.30;48.50;;;7.70;88.70;;;;;;5094194;28;20024;-71
2020/12/10 11:57:47;;;;;;;75.45;48.38;;;7.70;89.80;;;;;;5092189;28;20039;-72
2020/12/10 12:00:13;;;;;;;56.88;38.67;;;7.70;89.90;;;;;;5093881;28;20065;-71
2020/12/10 12:02:40;;;;;;;51.50;34.47;;;7.80;89.10;;;;;;5093773;28;20039;-72
2020/12/10 12:05:09;;;;;;;48.47;33.03;;;7.70;88.90;;;;;;5093271;28;20464;-72
2020/12/10 12:07:37;;;;;;;43.90;30.33;;;7.70;89.00;;;;;;5092779;28;20084;-71
2020/12/10 12:10:03;;;;;;;47.58;31.23;;;7.70;88.60;;;;;;5094334;28;20024;-71
2020/12/10 12:12:29;;;;;;;44.33;31.20;;;7.70;88.80;;;;;;5092091;28;20039;-72
2020/12/10 12:14:55;;;;;;;42.03;30.27;;;7.60;89.10;;;;;;5092515;28;20024;-71
2020/12/10 12:17:21;;;;;;;44.42;30.55;;;7.60;89.10;;;;;;5093698;28;20024;-72
2020/12/10 12:19:47;;;;;;;48.10;33.60;;;7.60;89.10;;;;;;5092103;28;20032;-71
2020/12/10 12:22:12;;;;;;;43.67;30.15;;;7.60;89.30;;;;;;5093416;28;20031;-71
2020/12/10 12:24:38;;;;;;;41.80;29.38;;;7.50;89.30;;;;;;5092070;28;20030;-72
2020/12/10 12:27:05;;;;;;;39.47;28.95;;;7.60;88.80;;;;;;5092366;28;20460;-72
2020/12/10 12:29:31;;;;;;;41.13;29.30;;;7.50;88.70;;;;;;5090554;28;20020;-71
2020/12/10 12:31:57;;;;;;;39.45;28.60;;;7.50;88.90;;;;;;5093010;28;20028;-71
2020/12/10 12:34:23;;;;;;;39.00;28.70;;;7.40;89.60;;;;;;5092253;28;20093;-72
2020/12/10 12:36:49;;;;;;;40.80;29.40;;;7.40;88.90;;;;;;5093588;28;20028;-71
2020/12/10 12:39:15;;;;;;;40.13;29.05;;;7.40;89.20;;;;;;5091639;28;20028;-71